Time;durP1;ratioP1;P1;durP2;ratioP2;P2;SDS_P1;SDS_P2;PMS_P1;PMS_P2;Temp;Humidity;BMP_temperature;BMP_pressure;BME280_temperature;BME280_humidity;BME280_pressure;Samples;Min_cycle;Max_cycle;Signal;HPM_P1;HPM_P2
2021/12/19 00:01:42;;;;;;;51.08;24.73;;;6.70;99.90;;;;;;5089673;28;20078;-67
2021/12/19 00:04:31;;;;;;;50.97;24.20;;;6.70;99.90;;;;;;5089567;28;20031;-67
2021/12/19 00:09:39;;;;;;;54.28;23.90;;;6.70;99.90;;;;;;5090608;28;20028;-67
2021/12/19 00:12:05;;;;;;;51.97;24.10;;;6.70;99.90;;;;;;5088872;28;20024;-67
2021/12/19 00:14:31;;;;;;;50.60;25.02;;;6.70;99.90;;;;;;5072596;28;20029;-68
2021/12/19 00:16:58;;;;;;;48.92;25.30;;;6.70;99.90;;;;;;5090043;28;20021;-68
2021/12/19 00:19:23;;;;;;;53.42;25.58;;;6.70;99.90;;;;;;5089100;28;20481;-67
2021/12/19 00:21:49;;;;;;;49.13;24.42;;;6.80;99.90;;;;;;5071614;28;20098;-68
2021/12/19 00:24:15;;;;;;;54.47;25.67;;;6.70;99.90;;;;;;5090486;28;20024;-68
2021/12/19 00:26:40;;;;;;;58.53;27.70;;;6.70;99.90;;;;;;5090396;28;20048;-67
2021/12/19 00:29:06;;;;;;;51.38;26.88;;;6.70;99.90;;;;;;5071627;28;20031;-68
2021/12/19 00:31:33;;;;;;;49.95;25.70;;;6.80;99.90;;;;;;5068171;28;20470;-67
2021/12/19 00:33:59;;;;;;;55.15;26.08;;;6.80;99.90;;;;;;5058313;28;20031;-68
2021/12/19 00:36:25;;;;;;;56.38;25.30;;;6.80;99.90;;;;;;5075037;28;20020;-68
2021/12/19 00:38:51;;;;;;;49.13;24.83;;;6.80;99.90;;;;;;5075268;28;20025;-68
2021/12/19 00:41:17;;;;;;;53.95;24.85;;;6.80;99.90;;;;;;5076616;28;20036;-68
2021/12/19 00:43:46;;;;;;;51.75;25.00;;;6.80;99.90;;;;;;5076335;28;20025;-66
2021/12/19 00:46:15;;;;;;;56.72;25.92;;;6.70;99.90;;;;;;5076569;28;20025;-66
2021/12/19 00:48:43;;;;;;;52.42;24.48;;;6.80;99.90;;;;;;5058908;28;20027;-68
2021/12/19 00:51:16;;;;;;;55.10;25.48;;;6.70;99.90;;;;;;5074772;28;20106;-66
2021/12/19 00:53:42;;;;;;;55.53;25.60;;;6.80;99.90;;;;;;5076490;28;20020;-67
2021/12/19 00:56:08;;;;;;;56.17;27.67;;;6.80;99.90;;;;;;5074949;28;20028;-67
2021/12/19 00:58:34;;;;;;;60.50;27.42;;;6.80;99.90;;;;;;5076085;28;20115;-67
2021/12/19 01:01:03;;;;;;;61.35;29.08;;;6.80;99.90;;;;;;5057767;28;20064;-67
2021/12/19 01:03:28;;;;;;;61.22;28.33;;;6.80;99.90;;;;;;5075132;28;20527;-67
2021/12/19 01:05:54;;;;;;;60.35;28.52;;;6.80;99.90;;;;;;5058270;28;20025;-67
2021/12/19 01:08:20;;;;;;;60.63;26.90;;;6.80;99.90;;;;;;5074919;28;20024;-67
2021/12/19 01:10:47;;;;;;;52.95;25.75;;;6.80;99.90;;;;;;5075892;28;20549;-67
2021/12/19 01:13:15;;;;;;;59.53;25.55;;;6.80;99.90;;;;;;5075780;28;20468;-67
2021/12/19 01:15:41;;;;;;;56.55;25.50;;;6.70;99.90;;;;;;5074207;28;20119;-67
2021/12/19 01:18:07;;;;;;;51.25;25.15;;;6.70;99.90;;;;;;5075461;28;20104;-67
2021/12/19 01:20:36;;;;;;;52.45;23.55;;;6.80;99.90;;;;;;5073840;28;20040;-67
2021/12/19 01:23:03;;;;;;;46.88;23.55;;;6.80;99.90;;;;;;5057391;28;20027;-67
2021/12/19 01:25:29;;;;;;;49.13;23.08;;;6.80;99.90;;;;;;5074394;28;20024;-67
2021/12/19 01:27:55;;;;;;;45.35;21.17;;;6.80;99.90;;;;;;5074350;28;20066;-67
2021/12/19 01:30:20;;;;;;;46.35;21.50;;;6.70;99.90;;;;;;5075709;28;20470;-67
2021/12/19 01:32:47;;;;;;;46.97;21.17;;;6.70;99.90;;;;;;5075705;28;20040;-67
2021/12/19 01:35:16;;;;;;;38.67;18.05;;;6.80;99.90;;;;;;5075086;28;20107;-67
2021/12/19 01:37:42;;;;;;;38.22;19.35;;;6.80;99.90;;;;;;5075327;28;20027;-67
2021/12/19 01:40:10;;;;;;;39.15;19.15;;;6.80;99.90;;;;;;5074294;28;20020;-67
2021/12/19 01:42:39;;;;;;;39.10;19.08;;;6.80;99.90;;;;;;5075199;28;20051;-67
2021/12/19 01:45:09;;;;;;;34.78;17.08;;;6.80;99.90;;;;;;5072693;28;20531;-67
2021/12/19 01:47:35;;;;;;;31.27;16.67;;;6.70;99.90;;;;;;5075351;28;20024;-67
2021/12/19 01:50:01;;;;;;;31.42;16.20;;;6.70;99.90;;;;;;5075032;28;20036;-67
2021/12/19 01:52:28;;;;;;;29.98;15.27;;;6.70;99.90;;;;;;5075280;28;20025;-67
2021/12/19 01:54:55;;;;;;;25.67;13.75;;;6.70;99.90;;;;;;5075227;28;20050;-67
2021/12/19 01:57:24;;;;;;;26.73;13.38;;;6.70;99.90;;;;;;5056970;28;20075;-67
2021/12/19 01:59:49;;;;;;;25.83;13.82;;;6.70;99.90;;;;;;5073287;28;20025;-68
2021/12/19 02:02:15;;;;;;;28.98;14.85;;;6.70;99.90;;;;;;5075114;28;20033;-67
2021/12/19 02:04:42;;;;;;;27.58;13.77;;;6.70;99.90;;;;;;5073229;28;20025;-67
2021/12/19 02:07:10;;;;;;;27.20;13.23;;;6.70;99.90;;;;;;5074999;28;20021;-67
2021/12/19 02:09:35;;;;;;;27.33;12.55;;;6.70;99.90;;;;;;5074677;28;20365;-67
2021/12/19 02:12:03;;;;;;;25.52;13.30;;;6.70;99.90;;;;;;5074643;28;20028;-67
2021/12/19 02:14:29;;;;;;;23.48;12.77;;;6.70;99.90;;;;;;5074611;28;20111;-67
2021/12/19 02:16:54;;;;;;;24.27;12.35;;;6.70;99.90;;;;;;5073822;28;20056;-67
2021/12/19 02:19:20;;;;;;;23.75;12.40;;;6.60;99.90;;;;;;5072993;28;20444;-67
2021/12/19 02:21:45;;;;;;;23.98;12.05;;;6.70;99.90;;;;;;5072772;28;20049;-67
2021/12/19 02:24:11;;;;;;;41.13;12.85;;;6.60;99.90;;;;;;5073503;28;20093;-67
2021/12/19 02:26:38;;;;;;;22.48;11.88;;;6.60;99.90;;;;;;5074629;28;20025;-67
2021/12/19 02:29:05;;;;;;;20.40;10.20;;;6.50;99.90;;;;;;5056646;28;20017;-67
2021/12/19 02:31:30;;;;;;;19.08;9.40;;;6.50;99.90;;;;;;5074551;28;20489;-67
2021/12/19 02:34:14;;;;;;;17.65;9.50;;;6.50;99.90;;;;;;5056047;28;20028;-67
2021/12/19 02:50:18;;;;;;;14.57;7.30;;;6.40;99.90;;;;;;5073614;28;20358;-67
2021/12/19 02:52:44;;;;;;;10.52;5.38;;;6.40;99.90;;;;;;5072452;28;20028;-67
2021/12/19 02:55:10;;;;;;;12.73;6.00;;;6.30;99.90;;;;;;5056447;28;20028;-67
2021/12/19 02:57:38;;;;;;;15.45;4.97;;;6.30;99.90;;;;;;5072399;28;20075;-67
2021/12/19 03:00:09;;;;;;;8.40;5.03;;;6.20;99.90;;;;;;5072407;28;20430;-67
2021/12/19 03:02:35;;;;;;;7.28;4.45;;;6.20;99.90;;;;;;5074124;28;20023;-67
2021/12/19 03:05:01;;;;;;;7.10;3.25;;;6.20;99.90;;;;;;5072634;28;20390;-67
2021/12/19 03:07:29;;;;;;;6.55;3.38;;;6.10;99.90;;;;;;5072251;28;20017;-67
2021/12/19 03:10:18;;;;;;;5.45;3.20;;;6.10;99.90;;;;;;5072624;28;20098;-67
2021/12/19 03:13:01;;;;;;;5.85;3.53;;;6.00;99.90;;;;;;5073079;28;20032;-67
2021/12/19 03:18:14;;;;;;;5.90;3.40;;;5.90;99.90;;;;;;5073311;28;20378;-67
2021/12/19 03:20:43;;;;;;;4.63;2.85;;;5.90;99.90;;;;;;5072220;28;20072;-67
2021/12/19 03:23:12;;;;;;;5.18;3.20;;;5.90;99.90;;;;;;5056131;28;20021;-67
2021/12/19 03:25:38;;;;;;;4.82;2.95;;;5.90;99.90;;;;;;5055490;28;20056;-67
2021/12/19 03:28:05;;;;;;;4.95;2.55;;;6.00;99.90;;;;;;5072415;28;20542;-67
2021/12/19 03:30:32;;;;;;;5.35;2.65;;;6.00;99.90;;;;;;5055396;28;20145;-67
2021/12/19 03:32:58;;;;;;;5.50;2.75;;;5.90;99.90;;;;;;5073556;28;20528;-66
2021/12/19 03:35:24;;;;;;;5.88;2.65;;;5.90;99.90;;;;;;5055616;28;20028;-67
2021/12/19 03:37:52;;;;;;;6.50;3.00;;;5.90;99.90;;;;;;5073462;28;20481;-67
2021/12/19 03:40:24;;;;;;;7.85;3.17;;;5.90;99.90;;;;;;5072292;28;20519;-67
2021/12/19 03:42:53;;;;;;;8.48;4.03;;;5.90;99.90;;;;;;5071955;28;20028;-67
2021/12/19 03:45:21;;;;;;;9.48;4.80;;;5.90;99.90;;;;;;5071934;28;20024;-67
2021/12/19 03:47:48;;;;;;;9.65;4.57;;;5.90;99.90;;;;;;5072261;28;20036;-67
2021/12/19 03:50:17;;;;;;;13.63;5.80;;;5.80;99.90;;;;;;5055142;28;20070;-67
2021/12/19 03:52:43;;;;;;;11.38;5.72;;;5.80;99.90;;;;;;5073649;28;20096;-67
2021/12/19 03:55:09;;;;;;;14.68;6.25;;;5.80;99.90;;;;;;5072481;28;20109;-67
2021/12/19 03:57:34;;;;;;;14.07;6.60;;;5.80;99.90;;;;;;5073344;28;20028;-67
2021/12/19 04:00:00;;;;;;;16.67;7.50;;;5.70;99.90;;;;;;5072055;28;20442;-67
2021/12/19 04:02:27;;;;;;;14.50;7.13;;;5.70;99.90;;;;;;5073540;28;20103;-67
2021/12/19 04:04:55;;;;;;;14.90;7.82;;;5.70;99.90;;;;;;5056149;28;20056;-67
2021/12/19 04:07:22;;;;;;;18.13;7.15;;;5.70;99.90;;;;;;5056795;28;20144;-67
2021/12/19 04:09:48;;;;;;;13.70;6.47;;;5.70;99.90;;;;;;5075837;28;20029;-67
2021/12/19 04:12:15;;;;;;;14.13;6.20;;;5.70;99.90;;;;;;5075748;28;20037;-67
2021/12/19 04:14:41;;;;;;;12.18;5.32;;;5.70;99.90;;;;;;5077134;28;20021;-67
2021/12/19 04:17:07;;;;;;;12.60;4.60;;;5.70;99.90;;;;;;5076623;28;20105;-67
2021/12/19 04:19:33;;;;;;;8.57;3.58;;;5.70;99.90;;;;;;5075109;28;20420;-67
2021/12/19 04:21:59;;;;;;;10.02;4.07;;;5.70;99.90;;;;;;5075822;28;20458;-67
2021/12/19 04:24:26;;;;;;;8.65;3.60;;;5.60;99.90;;;;;;5059181;28;20020;-67
2021/12/19 04:26:53;;;;;;;7.35;3.42;;;5.60;99.90;;;;;;5075526;28;20602;-67
2021/12/19 04:29:19;;;;;;;6.40;3.13;;;5.60;99.90;;;;;;5076360;28;20078;-67
2021/12/19 04:31:44;;;;;;;6.78;2.78;;;5.60;99.90;;;;;;5076851;28;20032;-67
2021/12/19 04:34:12;;;;;;;6.22;2.97;;;5.50;99.90;;;;;;5076567;28;20043;-67
2021/12/19 04:36:41;;;;;;;8.60;3.63;;;5.50;99.90;;;;;;5075371;28;20016;-67
2021/12/19 04:39:25;;;;;;;14.25;5.25;;;5.50;99.90;;;;;;5058810;28;20051;-67
2021/12/19 04:53:13;;;;;;;11.18;4.82;;;5.40;99.90;;;;;;5075780;28;20036;-66
2021/12/19 04:56:17;;;;;;;9.20;4.13;;;5.40;99.90;;;;;;5074609;28;20020;-66
2021/12/19 04:58:51;;;;;;;10.57;4.88;;;5.40;99.90;;;;;;5074707;28;20077;-66
2021/12/19 05:01:31;;;;;;;11.68;4.95;;;5.40;99.90;;;;;;5074610;28;20028;-66
2021/12/19 05:14:53;;;;;;;10.02;3.78;;;5.30;99.90;;;;;;5110162;28;20428;-66
2021/12/19 05:17:23;;;;;;;11.65;3.85;;;5.30;99.90;;;;;;5111839;28;20047;-66
2021/12/19 05:20:07;;;;;;;10.43;4.13;;;5.40;99.90;;;;;;5110005;28;20024;-66
2021/12/19 05:22:38;;;;;;;10.40;3.95;;;5.30;99.90;;;;;;5110205;28;20088;-66
2021/12/19 05:25:14;;;;;;;8.82;4.10;;;5.30;99.90;;;;;;5110560;28;20522;-66
2021/12/19 05:27:42;;;;;;;11.18;3.70;;;5.30;99.90;;;;;;5111621;28;20028;-66
2021/12/19 05:30:08;;;;;;;14.13;4.07;;;5.30;99.90;;;;;;5111343;28;20024;-66
2021/12/19 05:32:34;;;;;;;11.55;4.53;;;5.30;99.90;;;;;;5111550;28;20070;-66
2021/12/19 05:35:00;;;;;;;10.65;4.55;;;5.30;99.90;;;;;;5110000;28;20020;-66
2021/12/19 05:45:41;;;;;;;13.38;4.13;;;5.30;99.90;;;;;;5109616;28;20030;-66
2021/12/19 05:48:07;;;;;;;12.38;4.47;;;5.30;99.90;;;;;;5111207;28;20364;-66
2021/12/19 05:50:32;;;;;;;10.63;4.50;;;5.30;99.90;;;;;;5109743;28;20024;-67
2021/12/19 05:52:58;;;;;;;12.10;3.95;;;5.30;99.90;;;;;;5109708;28;20020;-67
2021/12/19 05:55:23;;;;;;;14.95;4.30;;;5.30;99.90;;;;;;5111114;28;20437;-66
2021/12/19 05:57:49;;;;;;;11.65;4.80;;;5.30;99.90;;;;;;5111080;28;20036;-66
2021/12/19 06:00:17;;;;;;;11.77;4.50;;;5.30;99.90;;;;;;5110739;28;20020;-66
2021/12/19 06:02:43;;;;;;;12.05;4.70;;;5.30;99.90;;;;;;5110421;28;20027;-66
2021/12/19 06:05:12;;;;;;;14.90;5.57;;;5.30;99.90;;;;;;5109172;28;20028;-66
2021/12/19 06:07:38;;;;;;;15.80;5.43;;;5.30;99.90;;;;;;5110492;28;20043;-66
2021/12/19 06:10:05;;;;;;;13.30;5.35;;;5.30;99.90;;;;;;5110003;28;20100;-66
2021/12/19 06:12:32;;;;;;;13.98;6.03;;;5.30;99.90;;;;;;5109320;28;20030;-66
2021/12/19 06:14:58;;;;;;;14.07;5.40;;;5.30;99.90;;;;;;5110214;28;20024;-66
2021/12/19 06:17:24;;;;;;;11.20;5.15;;;5.30;99.90;;;;;;5110139;28;20381;-66
2021/12/19 06:19:49;;;;;;;17.40;5.97;;;5.30;99.90;;;;;;5101571;28;20138;-66
2021/12/19 06:22:15;;;;;;;13.52;5.43;;;5.30;99.90;;;;;;5096749;28;20032;-66
2021/12/19 06:24:40;;;;;;;13.35;5.60;;;5.30;99.90;;;;;;5097009;28;20027;-66
2021/12/19 06:27:06;;;;;;;15.60;6.03;;;5.30;99.90;;;;;;5078218;28;20362;-66
2021/12/19 06:29:32;;;;;;;13.95;6.20;;;5.30;99.90;;;;;;5096660;28;20479;-66
2021/12/19 06:31:58;;;;;;;15.73;6.05;;;5.30;99.90;;;;;;5095718;28;20457;-66
2021/12/19 06:34:24;;;;;;;14.93;5.57;;;5.30;99.90;;;;;;5096801;28;20016;-66
2021/12/19 06:36:52;;;;;;;12.40;5.90;;;5.30;99.90;;;;;;5078182;28;20039;-66
2021/12/19 06:39:18;;;;;;;15.43;6.45;;;5.30;99.90;;;;;;5095291;28;20103;-66
2021/12/19 06:41:44;;;;;;;18.98;6.50;;;5.30;99.90;;;;;;5078018;28;20024;-66
2021/12/19 06:44:09;;;;;;;12.98;5.93;;;5.30;99.90;;;;;;5095499;28;20039;-66
2021/12/19 06:46:35;;;;;;;14.50;5.05;;;5.30;99.90;;;;;;5095174;28;20031;-66
2021/12/19 06:49:01;;;;;;;16.35;6.00;;;5.30;99.90;;;;;;5094668;28;20389;-66
2021/12/19 06:51:26;;;;;;;15.40;5.55;;;5.30;99.90;;;;;;5095065;28;20059;-66
2021/12/19 06:53:52;;;;;;;15.30;5.28;;;5.30;99.90;;;;;;5096417;28;20027;-66
2021/12/19 06:56:18;;;;;;;13.30;5.50;;;5.30;99.90;;;;;;5096427;28;20527;-67
2021/12/19 06:58:43;;;;;;;14.68;5.65;;;5.30;99.90;;;;;;5095195;28;20380;-66
2021/12/19 07:01:09;;;;;;;15.45;5.80;;;5.30;99.90;;;;;;5095130;28;20101;-66
2021/12/19 07:03:35;;;;;;;12.20;5.18;;;5.30;99.90;;;;;;5096237;28;20465;-66
2021/12/19 07:06:01;;;;;;;13.43;5.20;;;5.30;99.90;;;;;;5094488;28;20028;-66
2021/12/19 07:08:27;;;;;;;12.93;5.20;;;5.40;99.90;;;;;;5094391;28;20131;-66
2021/12/19 07:10:52;;;;;;;13.05;5.15;;;5.30;99.90;;;;;;5077490;28;20047;-66
2021/12/19 07:13:21;;;;;;;13.10;5.40;;;5.30;99.90;;;;;;5077384;28;20016;-67
2021/12/19 07:15:49;;;;;;;14.05;5.45;;;5.30;99.90;;;;;;5095985;28;20369;-67
2021/12/19 07:18:15;;;;;;;19.00;5.60;;;5.30;99.90;;;;;;5094817;28;20493;-67
2021/12/19 07:20:42;;;;;;;11.50;5.53;;;5.40;99.90;;;;;;5094495;28;20039;-66
2021/12/19 07:23:11;;;;;;;14.43;6.05;;;5.40;99.90;;;;;;5078401;28;20023;-66
2021/12/19 07:25:37;;;;;;;14.73;6.15;;;5.30;99.90;;;;;;5094002;28;20067;-67
2021/12/19 07:28:03;;;;;;;19.63;6.65;;;5.40;99.90;;;;;;5094264;28;20481;-67
2021/12/19 07:30:30;;;;;;;12.77;6.13;;;5.30;99.90;;;;;;5093630;28;20020;-66
2021/12/19 07:32:57;;;;;;;15.57;6.55;;;5.40;99.90;;;;;;5094218;28;20461;-66
2021/12/19 07:35:23;;;;;;;18.05;6.90;;;5.40;99.90;;;;;;5093769;28;20020;-67
2021/12/19 07:37:51;;;;;;;16.50;6.63;;;5.30;99.90;;;;;;5095612;28;20027;-66
2021/12/19 07:40:19;;;;;;;15.02;6.47;;;5.40;99.90;;;;;;5093714;28;20028;-67
2021/12/19 07:42:45;;;;;;;18.85;6.53;;;5.40;99.90;;;;;;5095479;28;20027;-66
2021/12/19 07:45:11;;;;;;;18.02;6.55;;;5.40;99.90;;;;;;5076819;28;20032;-67
2021/12/19 07:47:38;;;;;;;18.48;7.15;;;5.40;99.90;;;;;;5095341;28;20463;-67
2021/12/19 07:50:06;;;;;;;17.30;6.57;;;5.40;99.90;;;;;;5076856;28;20024;-66
2021/12/19 07:52:31;;;;;;;18.58;7.35;;;5.50;99.90;;;;;;5076888;28;20540;-66
2021/12/19 07:54:57;;;;;;;18.27;7.78;;;5.50;99.90;;;;;;5093441;28;20127;-67
2021/12/19 07:57:22;;;;;;;18.15;8.13;;;5.50;99.90;;;;;;5093751;28;20035;-66
2021/12/19 07:59:48;;;;;;;16.95;7.50;;;5.50;99.90;;;;;;5093652;28;20465;-67
2021/12/19 08:02:13;;;;;;;19.42;8.10;;;5.50;99.90;;;;;;5076392;28;20028;-66
2021/12/19 08:04:39;;;;;;;19.45;8.10;;;5.50;99.90;;;;;;5076389;28;20054;-67
2021/12/19 08:07:04;;;;;;;15.18;7.13;;;5.50;99.90;;;;;;5093271;28;20080;-67
2021/12/19 08:10:14;;;;;;;17.23;7.10;;;5.60;99.90;;;;;;5093193;28;20385;-67
2021/12/19 08:12:15;;;;;;;16.63;7.05;;;5.60;99.90;;;;;;5093240;28;20024;-67
2021/12/19 08:14:41;;;;;;;14.70;6.63;;;5.60;99.90;;;;;;5076197;28;20020;-67
2021/12/19 08:17:06;;;;;;;17.08;6.25;;;5.60;99.90;;;;;;5093408;28;20095;-66
2021/12/19 08:19:32;;;;;;;21.33;5.95;;;5.60;99.90;;;;;;5093363;28;20050;-67
2021/12/19 08:21:57;;;;;;;11.32;5.38;;;5.70;99.90;;;;;;5092954;28;20023;-66
2021/12/19 08:24:23;;;;;;;12.95;5.32;;;5.70;99.90;;;;;;5094461;28;20364;-67
2021/12/19 08:26:48;;;;;;;13.43;5.15;;;5.70;99.90;;;;;;5076064;28;20024;-67
2021/12/19 08:29:14;;;;;;;13.60;5.85;;;5.70;99.90;;;;;;5093157;28;20494;-67
2021/12/19 08:31:41;;;;;;;12.40;5.47;;;5.70;99.90;;;;;;5094648;28;20020;-67
2021/12/19 08:34:07;;;;;;;13.25;5.50;;;5.70;99.90;;;;;;5093953;28;20389;-67
2021/12/19 08:36:33;;;;;;;15.60;5.93;;;5.80;99.90;;;;;;5093108;28;20016;-66
2021/12/19 08:38:58;;;;;;;18.10;6.72;;;5.80;99.90;;;;;;5094239;28;20484;-67
2021/12/19 08:41:24;;;;;;;15.15;5.97;;;5.80;99.90;;;;;;5093014;28;20024;-66
2021/12/19 08:43:50;;;;;;;11.93;6.05;;;5.80;99.90;;;;;;5093052;28;20043;-66
2021/12/19 08:46:16;;;;;;;12.52;6.03;;;5.90;99.90;;;;;;5076310;28;20036;-67
2021/12/19 08:48:42;;;;;;;13.40;6.47;;;6.00;99.90;;;;;;5092481;28;20035;-67
2021/12/19 08:51:08;;;;;;;13.43;5.97;;;6.00;99.90;;;;;;5092534;28;20487;-67
2021/12/19 08:53:34;;;;;;;14.00;6.25;;;6.00;99.90;;;;;;5094292;28;20012;-67
2021/12/19 08:56:00;;;;;;;15.15;6.45;;;6.00;99.90;;;;;;5093746;28;20039;-67
2021/12/19 08:58:28;;;;;;;11.00;5.88;;;6.10;99.90;;;;;;5092439;28;20039;-67
2021/12/19 09:00:57;;;;;;;10.88;5.60;;;6.10;99.90;;;;;;5094209;28;20020;-67
2021/12/19 09:03:23;;;;;;;8.07;4.55;;;6.20;99.90;;;;;;5092508;28;20035;-67
2021/12/19 09:05:49;;;;;;;11.88;5.68;;;6.20;99.90;;;;;;5093871;28;20028;-66
2021/12/19 09:08:14;;;;;;;9.32;5.43;;;6.10;99.90;;;;;;5093451;28;20058;-67
2021/12/19 09:10:40;;;;;;;7.85;4.90;;;6.20;99.90;;;;;;5093867;28;20024;-67
2021/12/19 09:13:06;;;;;;;9.45;5.03;;;6.20;99.90;;;;;;5094093;28;20020;-67
2021/12/19 09:15:31;;;;;;;9.73;4.75;;;6.30;99.90;;;;;;5092813;28;20093;-67
2021/12/19 09:17:57;;;;;;;7.75;4.97;;;6.40;99.90;;;;;;5092627;28;20024;-67
2021/12/19 09:20:22;;;;;;;7.88;4.65;;;6.40;99.90;;;;;;5093765;28;20095;-67
2021/12/19 09:22:48;;;;;;;7.38;3.85;;;6.40;99.90;;;;;;5092975;28;20499;-67
2021/12/19 09:25:14;;;;;;;6.30;3.83;;;6.40;99.90;;;;;;5092116;28;20081;-67
2021/12/19 09:27:39;;;;;;;7.15;3.90;;;6.40;99.90;;;;;;5092480;28;20028;-67
2021/12/19 09:30:05;;;;;;;5.95;3.97;;;6.50;99.90;;;;;;5093924;28;20020;-67
2021/12/19 09:32:31;;;;;;;6.03;3.90;;;6.50;99.90;;;;;;5092759;28;20161;-67
2021/12/19 09:34:56;;;;;;;6.28;3.88;;;6.50;99.90;;;;;;5092707;28;20082;-67
2021/12/19 09:37:22;;;;;;;6.97;3.88;;;6.30;99.90;;;;;;5093864;28;20028;-67
2021/12/19 09:39:50;;;;;;;5.97;3.88;;;6.40;99.90;;;;;;5093579;28;20032;-67
2021/12/19 09:42:19;;;;;;;7.03;4.07;;;6.40;99.90;;;;;;5093858;28;20467;-67
2021/12/19 09:44:45;;;;;;;5.63;3.30;;;6.50;99.90;;;;;;5093539;28;20146;-67
2021/12/19 09:47:10;;;;;;;6.07;3.17;;;6.40;99.90;;;;;;5091984;28;20513;-67
2021/12/19 09:49:36;;;;;;;4.20;2.28;;;6.50;99.90;;;;;;5092335;28;20020;-67
2021/12/19 09:52:05;;;;;;;3.60;2.20;;;6.50;99.90;;;;;;5091906;28;20020;-67
2021/12/19 09:54:32;;;;;;;4.75;2.20;;;6.60;99.90;;;;;;5094921;28;20024;-67
2021/12/19 09:56:57;;;;;;;2.38;1.70;;;6.50;99.90;;;;;;5096076;28;20055;-68
2021/12/19 09:59:23;;;;;;;2.70;1.92;;;6.60;99.90;;;;;;5097212;28;20032;-67
2021/12/19 10:01:51;;;;;;;2.95;1.77;;;6.60;99.90;;;;;;5095697;28;20024;-67
2021/12/19 10:04:39;;;;;;;1.70;1.40;;;6.80;99.90;;;;;;5095707;28;20021;-67
2021/12/19 10:09:57;;;;;;;1.73;1.38;;;6.80;99.90;;;;;;5112227;27;20408;-67
2021/12/19 10:15:08;;;;;;;3.00;1.55;;;6.80;99.90;;;;;;5111635;28;20030;-67
2021/12/19 10:17:33;;;;;;;2.42;1.45;;;6.70;99.90;;;;;;5111580;28;20512;-67
2021/12/19 10:20:02;;;;;;;3.30;1.80;;;6.60;99.90;;;;;;5110237;28;20119;-67
2021/12/19 10:22:35;;;;;;;2.42;1.52;;;6.60;99.90;;;;;;5094278;28;20540;-67
2021/12/19 10:27:53;;;;;;;2.33;1.77;;;6.60;99.90;;;;;;5091892;28;20748;-67
2021/12/19 10:30:31;;;;;;;2.13;1.60;;;6.50;99.90;;;;;;5089769;28;20043;-67
2021/12/19 10:33:00;;;;;;;3.92;2.10;;;6.60;99.90;;;;;;5090111;28;20063;-67
2021/12/19 10:38:15;;;;;;;2.97;2.00;;;6.60;99.90;;;;;;5112289;27;20351;-67
2021/12/19 10:40:45;;;;;;;8.43;2.65;;;6.70;99.90;;;;;;5111666;28;20089;-67
2021/12/19 10:43:16;;;;;;;4.07;2.30;;;6.80;99.90;;;;;;5111854;28;20019;-68
2021/12/19 10:45:52;;;;;;;4.40;2.47;;;6.80;99.90;;;;;;5110440;28;20460;-67
2021/12/19 10:48:23;;;;;;;2.50;2.30;;;6.70;99.90;;;;;;5111774;28;20052;-68
2021/12/19 10:50:54;;;;;;;2.45;2.15;;;6.70;99.90;;;;;;5111755;28;20020;-68
2021/12/19 10:53:26;;;;;;;3.63;2.42;;;6.70;99.90;;;;;;5111686;28;20053;-67
2021/12/19 10:55:53;;;;;;;5.28;2.58;;;6.60;99.90;;;;;;5111588;28;20016;-67
2021/12/19 10:58:30;;;;;;;3.40;2.65;;;6.50;99.90;;;;;;5092831;28;20418;-67
2021/12/19 11:03:44;;;;;;;4.32;3.08;;;6.50;99.90;;;;;;5071704;28;20383;-67
2021/12/19 11:06:18;;;;;;;3.67;2.35;;;6.50;99.90;;;;;;5070624;28;20021;-67
2021/12/19 11:08:43;;;;;;;;;;;6.50;99.90;;;;;;5069918;28;20362;-67
2021/12/19 11:11:10;;;;;;;4.00;2.20;;;6.50;99.90;;;;;;5071016;28;19911;-67
2021/12/19 11:13:36;;;;;;;4.07;2.22;;;6.50;99.90;;;;;;5070920;28;20035;-67
2021/12/19 11:16:02;;;;;;;3.13;2.35;;;6.50;99.90;;;;;;5052684;28;20024;-67
2021/12/19 11:18:28;;;;;;;3.03;1.90;;;6.50;99.90;;;;;;5069711;28;20039;-67
2021/12/19 11:20:53;;;;;;;3.35;1.60;;;6.50;99.90;;;;;;5069653;28;20021;-67
2021/12/19 11:23:19;;;;;;;3.80;1.80;;;6.50;99.90;;;;;;5069781;28;20029;-67
2021/12/19 11:25:45;;;;;;;3.47;1.92;;;6.50;99.90;;;;;;5070006;28;20021;-67
2021/12/19 11:28:11;;;;;;;4.40;2.70;;;6.50;99.90;;;;;;5069121;28;20603;-67
2021/12/19 11:30:38;;;;;;;3.70;2.40;;;6.50;99.90;;;;;;5070868;28;20020;-67
2021/12/19 11:33:34;;;;;;;3.65;2.42;;;6.50;99.90;;;;;;5052379;28;20063;-67
2021/12/19 11:36:01;;;;;;;3.97;2.90;;;6.50;99.90;;;;;;5069321;28;20064;-68
2021/12/19 11:38:27;;;;;;;6.80;3.17;;;6.50;99.90;;;;;;5070196;28;20027;-67
2021/12/19 11:40:53;;;;;;;4.70;3.28;;;6.50;99.90;;;;;;5069707;28;20025;-67
2021/12/19 11:43:19;;;;;;;4.65;3.03;;;6.50;99.90;;;;;;5052224;28;20031;-67
2021/12/19 11:45:58;;;;;;;6.25;3.40;;;6.50;99.90;;;;;;5069153;28;20029;-67
2021/12/19 11:48:29;;;;;;;6.63;3.67;;;6.50;99.90;;;;;;5069484;28;20021;-67
2021/12/19 11:50:58;;;;;;;5.63;3.58;;;6.50;99.90;;;;;;5053449;28;20021;-67
2021/12/19 11:53:29;;;;;;;6.65;3.55;;;6.50;99.90;;;;;;5052524;28;20500;-67
2021/12/19 11:56:12;;;;;;;8.00;4.07;;;6.50;99.90;;;;;;5070364;28;20036;-67
2021/12/19 11:58:45;;;;;;;4.97;3.35;;;6.50;99.90;;;;;;5054232;28;20474;-67
2021/12/19 12:01:29;;;;;;;8.32;4.32;;;6.60;99.90;;;;;;5068441;28;20136;-67
2021/12/19 12:03:58;;;;;;;7.25;4.47;;;6.60;99.90;;;;;;5069194;28;20162;-67
2021/12/19 12:06:31;;;;;;;7.30;4.60;;;6.60;99.90;;;;;;5070133;28;20013;-67
2021/12/19 12:09:20;;;;;;;;;;;6.60;99.90;;;;;;5054001;28;20024;-67
2021/12/19 12:14:42;;;;;;;11.25;5.80;;;6.60;99.90;;;;;;5091873;27;20435;-67
2021/12/19 12:17:17;;;;;;;10.00;5.50;;;6.60;99.90;;;;;;5089934;28;20473;-67
2021/12/19 12:19:49;;;;;;;12.00;6.07;;;6.60;99.90;;;;;;5090132;28;20021;-67
2021/12/19 12:25:15;;;;;;;14.45;7.05;;;6.60;99.90;;;;;;5112247;27;20407;-67
2021/12/19 12:27:52;;;;;;;12.50;6.50;;;6.60;99.90;;;;;;5110131;28;20039;-67
2021/12/19 12:30:23;;;;;;;12.02;6.13;;;6.60;99.90;;;;;;5110474;28;20024;-67
2021/12/19 12:32:49;;;;;;;14.07;6.43;;;6.70;99.90;;;;;;5093332;28;20444;-67
2021/12/19 12:35:16;;;;;;;13.43;7.03;;;6.70;99.90;;;;;;5110363;28;20056;-67
2021/12/19 12:37:42;;;;;;;12.30;6.30;;;6.70;99.90;;;;;;5109935;28;20479;-67
2021/12/19 12:40:17;;;;;;;11.82;6.07;;;6.70;99.90;;;;;;5110294;28;20035;-67
2021/12/19 12:43:12;;;;;;;14.10;6.75;;;6.70;99.90;;;;;;5111016;28;20027;-67
2021/12/19 12:45:58;;;;;;;14.25;7.22;;;6.60;99.90;;;;;;5109604;28;20032;-67
2021/12/19 12:48:56;;;;;;;10.43;6.82;;;6.60;99.90;;;;;;5111194;28;20015;-67
2021/12/19 12:51:36;;;;;;;12.15;6.75;;;6.60;99.90;;;;;;5109599;28;20107;-68
2021/12/19 12:54:08;;;;;;;13.20;7.15;;;6.60;99.90;;;;;;5111145;28;20027;-67
2021/12/19 12:56:41;;;;;;;11.88;6.47;;;6.60;99.90;;;;;;5110410;28;20522;-67
2021/12/19 12:59:06;;;;;;;13.63;6.53;;;6.60;99.90;;;;;;5109545;28;20032;-67
2021/12/19 13:01:36;;;;;;;12.65;7.25;;;6.60;99.90;;;;;;5109799;28;20430;-67
2021/12/19 13:04:14;;;;;;;12.63;7.35;;;6.70;99.90;;;;;;5110170;28;20028;-67
2021/12/19 13:07:04;;;;;;;17.65;7.10;;;6.70;99.90;;;;;;5110685;28;20045;-67
2021/12/19 13:09:35;;;;;;;16.25;7.53;;;6.70;99.90;;;;;;5109644;28;20488;-67
2021/12/19 13:12:14;;;;;;;13.98;7.32;;;6.70;99.90;;;;;;5111131;28;20020;-67
2021/12/19 13:14:43;;;;;;;18.27;7.15;;;6.70;99.90;;;;;;5092154;28;20034;-67
2021/12/19 13:17:12;;;;;;;15.80;7.22;;;6.70;99.90;;;;;;5109507;28;20028;-67
2021/12/19 13:19:44;;;;;;;13.55;7.20;;;6.70;99.90;;;;;;5109728;28;20031;-67
2021/12/19 13:22:18;;;;;;;12.57;7.10;;;6.70;99.90;;;;;;5092411;28;20035;-67
2021/12/19 13:24:44;;;;;;;14.73;7.35;;;6.70;99.90;;;;;;5091918;28;20546;-67
2021/12/19 13:27:15;;;;;;;15.45;7.60;;;6.80;99.90;;;;;;5109680;28;20354;-67
2021/12/19 13:29:42;;;;;;;12.05;6.70;;;6.80;99.90;;;;;;5108963;28;20030;-67
2021/12/19 13:32:18;;;;;;;14.45;6.95;;;6.80;99.90;;;;;;5109005;28;20016;-67
2021/12/19 13:34:44;;;;;;;14.70;6.30;;;6.70;99.90;;;;;;5104383;28;20016;-67
2021/12/19 13:37:09;;;;;;;12.95;6.25;;;6.70;99.90;;;;;;5095586;28;20093;-67
2021/12/19 13:39:36;;;;;;;15.00;6.60;;;6.60;99.90;;;;;;5096047;28;20032;-67
2021/12/19 13:42:11;;;;;;;14.98;7.20;;;6.60;99.90;;;;;;5095083;28;20393;-67
2021/12/19 13:44:37;;;;;;;16.77;7.03;;;6.60;99.90;;;;;;5078110;28;20031;-67
2021/12/19 13:47:10;;;;;;;14.82;6.55;;;6.60;99.90;;;;;;5095012;28;20028;-67
2021/12/19 13:49:36;;;;;;;14.23;8.32;;;6.60;99.90;;;;;;5096858;28;20023;-67
2021/12/19 13:52:03;;;;;;;16.00;7.65;;;6.60;99.90;;;;;;5094952;28;20431;-67
2021/12/19 13:54:29;;;;;;;12.73;7.38;;;6.60;99.90;;;;;;5096382;28;20401;-67
2021/12/19 13:56:54;;;;;;;21.00;7.60;;;6.60;99.90;;;;;;5096707;28;20042;-67
2021/12/19 13:59:24;;;;;;;14.77;6.80;;;6.60;99.90;;;;;;5096634;28;20051;-67
2021/12/19 14:01:50;;;;;;;12.45;6.65;;;6.60;99.90;;;;;;5078137;28;20024;-67
2021/12/19 14:04:19;;;;;;;16.58;6.97;;;6.60;99.90;;;;;;5077778;28;20438;-67